Time;durP1;ratioP1;P1;durP2;ratioP2;P2;SDS_P1;SDS_P2;PMS_P1;PMS_P2;Temp;Humidity;BMP_temperature;BMP_pressure;BME280_temperature;BME280_humidity;BME280_pressure;Samples;Min_cycle;Max_cycle;Signal;HPM_P1;HPM_P2
2022/08/08 00:00:30;;;;;;;11.88;6.10;;;15.50;99.90;;;;;;5054950;28;20048;-89
2022/08/08 00:03:03;;;;;;;13.43;5.07;;;15.60;99.90;;;;;;5071250;28;20402;-90
2022/08/08 00:05:38;;;;;;;8.05;2.88;;;15.50;99.90;;;;;;5054923;28;20043;-89
2022/08/08 00:08:30;;;;;;;8.02;3.92;;;15.40;99.90;;;;;;5071207;28;20051;-90
2022/08/08 00:11:13;;;;;;;7.95;3.70;;;15.30;99.90;;;;;;5071669;28;20044;-90
2022/08/08 00:13:41;;;;;;;;;;;15.30;99.90;;;;;;5055219;28;20036;-90
2022/08/08 00:16:12;;;;;;;6.53;3.58;;;15.10;99.90;;;;;;5070981;28;19955;-90
2022/08/08 00:18:56;;;;;;;5.82;2.40;;;15.10;99.90;;;;;;5071338;28;20045;-90
2022/08/08 00:21:40;;;;;;;4.18;2.10;;;15.00;99.90;;;;;;5070811;28;20028;-90
2022/08/08 00:24:19;;;;;;;5.10;2.53;;;15.00;99.90;;;;;;5071013;28;20036;-90
2022/08/08 00:26:50;;;;;;;6.38;2.75;;;15.00;99.90;;;;;;5071276;28;20405;-90
2022/08/08 00:29:24;;;;;;;3.92;1.75;;;14.90;99.90;;;;;;5071251;28;20436;-89
2022/08/08 00:31:53;;;;;;;3.20;1.30;;;14.80;99.90;;;;;;5070659;28;20497;-90
2022/08/08 00:37:33;;;;;;;3.40;1.73;;;14.70;99.90;;;;;;5070900;28;20492;-90
2022/08/08 00:40:05;;;;;;;5.95;2.95;;;14.70;99.90;;;;;;5070086;28;20040;-90
2022/08/08 00:43:09;;;;;;;6.30;3.03;;;14.70;99.90;;;;;;5070572;28;20070;-90
2022/08/08 00:45:40;;;;;;;;;;;14.70;99.90;;;;;;5054592;28;20207;-90
2022/08/08 00:48:38;;;;;;;5.43;2.38;;;14.60;99.90;;;;;;5053950;28;19962;-88
2022/08/08 00:51:51;;;;;;;8.75;4.63;;;14.60;99.90;;;;;;5053592;28;20475;-90
2022/08/08 00:54:35;;;;;;;6.72;3.13;;;14.60;99.90;;;;;;5053838;28;20083;-89
2022/08/08 00:57:39;;;;;;;7.93;4.97;;;14.50;99.90;;;;;;5070581;28;20519;-90
2022/08/08 01:00:10;;;;;;;7.32;3.20;;;14.60;99.90;;;;;;5070156;28;20036;-89
2022/08/08 01:02:55;;;;;;;7.88;4.50;;;14.50;99.90;;;;;;5069719;28;20072;-90
2022/08/08 01:05:29;;;;;;;8.52;4.80;;;14.60;99.90;;;;;;5053790;28;20047;-90
2022/08/08 01:08:23;;;;;;;8.10;3.40;;;14.50;99.90;;;;;;5070055;28;20040;-90
2022/08/08 01:11:27;;;;;;;7.60;3.55;;;14.40;99.90;;;;;;5053704;28;20401;-90
2022/08/08 01:14:26;;;;;;;7.60;4.95;;;14.20;99.90;;;;;;5054627;28;20055;-90
2022/08/08 01:17:27;;;;;;;6.45;2.75;;;14.30;99.90;;;;;;5070221;28;20082;-90
2022/08/08 01:20:11;;;;;;;6.22;3.15;;;14.10;99.90;;;;;;5070276;28;20402;-90
2022/08/08 01:22:37;;;;;;;3.97;1.65;;;14.20;99.90;;;;;;5052746;28;20116;-89
2022/08/08 01:25:23;;;;;;;5.15;2.60;;;14.10;99.90;;;;;;5053458;28;20229;-90
2022/08/08 01:27:52;;;;;;;6.28;3.10;;;14.10;99.90;;;;;;5053556;28;20044;-90
2022/08/08 01:30:49;;;;;;;5.68;2.70;;;14.10;99.90;;;;;;5053010;28;20448;-89
2022/08/08 01:33:57;;;;;;;4.53;2.03;;;14.20;99.90;;;;;;5069343;28;20147;-89
2022/08/08 01:36:50;;;;;;;6.53;2.15;;;14.10;99.90;;;;;;5070236;28;20126;-90
2022/08/08 01:39:58;;;;;;;3.97;2.00;;;14.00;99.90;;;;;;5053672;28;20037;-89
2022/08/08 01:42:42;;;;;;;5.00;2.30;;;14.10;99.90;;;;;;5052600;28;20040;-90
2022/08/08 01:45:13;;;;;;;5.07;2.42;;;14.00;99.90;;;;;;5052952;28;20041;-90
2022/08/08 01:47:48;;;;;;;5.82;3.08;;;13.90;99.90;;;;;;5069535;28;20040;-89
2022/08/08 01:50:22;;;;;;;6.82;3.83;;;14.00;99.90;;;;;;5053207;28;20067;-90
2022/08/08 01:53:03;;;;;;;6.05;2.33;;;14.00;99.90;;;;;;5052221;28;20072;-90
2022/08/08 01:55:59;;;;;;;4.80;1.70;;;14.00;99.90;;;;;;5070135;28;20063;-90
2022/08/08 01:58:44;;;;;;;6.00;2.03;;;13.90;99.90;;;;;;5069346;28;20038;-90
2022/08/08 02:01:44;;;;;;;5.28;2.20;;;13.70;99.90;;;;;;5069490;28;20409;-90
2022/08/08 02:04:38;;;;;;;4.03;2.03;;;13.80;99.90;;;;;;5037386;28;20053;-89
2022/08/08 02:07:09;;;;;;;6.63;2.20;;;13.70;99.90;;;;;;5052949;28;20405;-90
2022/08/08 02:09:48;;;;;;;5.30;2.53;;;13.50;99.90;;;;;;5052921;28;20066;-90
2022/08/08 02:12:31;;;;;;;3.95;1.92;;;13.50;99.90;;;;;;5052935;28;20051;-90
2022/08/08 02:15:10;;;;;;;3.97;1.67;;;13.50;99.90;;;;;;5069079;28;20052;-90
2022/08/08 02:18:08;;;;;;;5.68;2.30;;;13.40;99.90;;;;;;5069649;28;20119;-90
2022/08/08 02:22:30;;;;;;;6.53;2.95;;;13.30;99.90;;;;;;5069296;28;20513;-90
2022/08/08 02:23:51;;;;;;;5.32;2.17;;;13.30;99.90;;;;;;5069568;28;20052;-90
2022/08/08 02:26:27;;;;;;;5.80;2.90;;;13.30;99.90;;;;;;5069561;28;20087;-90
2022/08/08 02:29:04;;;;;;;4.90;2.20;;;13.30;99.90;;;;;;5052770;28;20040;-89
2022/08/08 02:31:35;;;;;;;6.93;2.63;;;13.30;99.90;;;;;;5068967;28;20490;-89
2022/08/08 02:34:10;;;;;;;6.07;3.05;;;13.20;99.90;;;;;;5069524;28;20079;-89
2022/08/08 02:37:01;;;;;;;5.80;3.28;;;13.20;99.90;;;;;;5069158;28;20041;-90
2022/08/08 02:39:32;;;;;;;5.80;2.97;;;13.20;99.90;;;;;;5069588;28;20442;-90
2022/08/08 02:42:39;;;;;;;6.00;3.10;;;13.30;99.90;;;;;;5052348;28;20040;-90
2022/08/08 02:45:49;;;;;;;6.53;3.08;;;13.30;99.90;;;;;;5052895;28;20036;-89
2022/08/08 02:48:45;;;;;;;6.85;3.13;;;13.20;99.90;;;;;;5052322;28;20040;-90
2022/08/08 02:51:33;;;;;;;7.10;4.30;;;13.10;99.90;;;;;;5069088;28;20083;-89
2022/08/08 02:54:29;;;;;;;6.45;2.95;;;13.20;99.90;;;;;;5069180;28;20094;-90
2022/08/08 02:57:04;;;;;;;6.97;3.60;;;13.20;99.90;;;;;;5069180;28;20044;-89
2022/08/08 03:00:11;;;;;;;7.45;4.97;;;13.20;99.90;;;;;;5052476;28;20123;-90
2022/08/08 03:02:42;;;;;;;6.38;3.35;;;13.30;99.90;;;;;;5052204;28;20036;-89
2022/08/08 03:05:20;;;;;;;6.40;3.25;;;13.20;99.90;;;;;;5072763;28;20083;-90
2022/08/08 03:08:33;;;;;;;6.80;4.00;;;13.20;99.90;;;;;;5056044;28;20079;-89
2022/08/08 03:11:31;;;;;;;6.15;2.78;;;13.20;99.90;;;;;;5018081;28;20049;-90
2022/08/08 03:14:34;;;;;;;7.05;3.50;;;13.10;99.90;;;;;;5034045;28;20052;-89
2022/08/08 03:17:10;;;;;;;6.28;3.58;;;13.10;99.90;;;;;;5034648;28;20037;-89
2022/08/08 03:20:07;;;;;;;7.35;3.92;;;13.10;99.90;;;;;;4985973;28;20486;-90
2022/08/08 03:22:43;;;;;;;6.75;4.25;;;13.10;99.90;;;;;;5034371;28;20084;-90
2022/08/08 03:25:09;;;;;;;7.95;4.30;;;13.10;99.90;;;;;;5051635;28;20041;-90
2022/08/08 03:27:40;;;;;;;6.45;2.78;;;13.10;99.90;;;;;;5034535;28;20114;-89
2022/08/08 03:30:10;;;;;;;6.68;2.95;;;13.10;99.90;;;;;;5017712;28;20044;-90
2022/08/08 03:35:25;;;;;;;3.90;1.50;;;13.00;99.90;;;;;;5033938;28;20084;-90
2022/08/08 03:37:51;;;;;;;3.95;2.08;;;12.90;99.90;;;;;;5051387;28;20469;-90
2022/08/08 03:40:19;;;;;;;4.40;2.28;;;12.90;99.90;;;;;;5022308;28;20095;-90
2022/08/08 03:42:46;;;;;;;3.05;1.27;;;12.90;99.90;;;;;;5051412;28;20045;-90
2022/08/08 03:45:16;;;;;;;1.65;1.17;;;12.80;99.90;;;;;;5035395;28;20041;-90
2022/08/08 03:47:42;;;;;;;3.03;1.30;;;12.70;99.90;;;;;;5052161;28;20406;-90
2022/08/08 03:50:15;;;;;;;3.15;1.80;;;12.80;99.90;;;;;;5051725;28;20051;-90
2022/08/08 03:52:41;;;;;;;3.80;1.58;;;12.70;99.90;;;;;;5051060;28;20095;-90
2022/08/08 03:55:15;;;;;;;4.30;1.85;;;12.60;99.90;;;;;;5035218;28;20466;-90
2022/08/08 03:58:03;;;;;;;4.47;2.33;;;12.50;99.90;;;;;;5035049;28;20064;-90
2022/08/08 04:00:29;;;;;;;4.85;1.70;;;12.60;99.90;;;;;;5051620;28;20044;-89
2022/08/08 04:02:57;;;;;;;3.30;1.80;;;12.50;99.90;;;;;;5034800;28;20052;-89
2022/08/08 04:05:32;;;;;;;4.45;1.88;;;12.50;99.90;;;;;;5051561;28;20037;-90
2022/08/08 04:08:00;;;;;;;3.75;1.70;;;12.50;99.90;;;;;;5051679;28;20036;-90
2022/08/08 04:10:26;;;;;;;4.72;1.70;;;12.40;99.90;;;;;;5051557;28;20041;-89
2022/08/08 04:12:53;;;;;;;5.05;2.30;;;12.40;99.90;;;;;;5070454;28;20051;-90
2022/08/08 04:15:19;;;;;;;4.50;1.95;;;12.40;99.90;;;;;;5071192;28;20048;-89
2022/08/08 04:17:45;;;;;;;3.88;1.67;;;12.40;99.90;;;;;;5071163;28;20033;-90
2022/08/08 04:20:11;;;;;;;3.85;1.88;;;12.30;99.90;;;;;;5071184;28;20044;-90
2022/08/08 04:22:37;;;;;;;3.78;1.77;;;12.40;99.90;;;;;;5070733;28;20124;-90
2022/08/08 04:25:03;;;;;;;4.82;1.90;;;12.40;99.90;;;;;;5071285;28;20043;-90
2022/08/08 04:27:29;;;;;;;3.28;1.48;;;12.40;99.90;;;;;;5071048;28;20089;-90
2022/08/08 04:29:54;;;;;;;5.00;1.70;;;12.30;99.90;;;;;;5071099;28;20040;-89
2022/08/08 04:32:20;;;;;;;4.10;1.73;;;12.30;99.90;;;;;;5070486;28;20037;-89
2022/08/08 04:34:45;;;;;;;3.15;1.20;;;12.40;99.90;;;;;;5053993;28;20029;-90
2022/08/08 04:37:11;;;;;;;1.92;1.20;;;12.40;99.90;;;;;;5054512;28;20486;-90
2022/08/08 04:39:37;;;;;;;3.05;1.30;;;12.30;99.90;;;;;;5070930;28;20032;-89
2022/08/08 04:42:03;;;;;;;3.83;1.80;;;12.30;99.90;;;;;;5053772;28;20045;-90
2022/08/08 04:44:29;;;;;;;2.92;1.30;;;12.40;99.90;;;;;;5054561;28;20402;-90
2022/08/08 04:46:55;;;;;;;3.35;1.63;;;12.40;99.90;;;;;;5070677;28;20040;-90
2022/08/08 04:49:20;;;;;;;3.63;1.85;;;12.40;99.90;;;;;;5054260;28;20479;-90
2022/08/08 04:51:46;;;;;;;3.53;1.73;;;12.40;99.90;;;;;;5070580;28;20037;-90
2022/08/08 04:54:11;;;;;;;5.20;2.30;;;12.50;99.90;;;;;;5054212;28;20556;-89
2022/08/08 04:56:37;;;;;;;7.18;3.33;;;12.50;99.90;;;;;;5070385;28;20577;-90
2022/08/08 04:59:03;;;;;;;4.50;2.10;;;12.50;99.90;;;;;;5072032;28;20047;-89
2022/08/08 05:01:29;;;;;;;3.78;1.30;;;12.50;99.90;;;;;;5053339;28;20075;-90
2022/08/08 05:03:54;;;;;;;4.25;2.28;;;12.50;99.90;;;;;;5053580;28;20036;-90
2022/08/08 05:06:20;;;;;;;2.55;1.35;;;12.50;99.90;;;;;;5070821;28;20044;-90
2022/08/08 05:08:46;;;;;;;2.15;1.30;;;12.50;99.90;;;;;;5070686;28;20433;-90
2022/08/08 05:11:12;;;;;;;2.25;1.40;;;12.60;99.90;;;;;;5070211;28;20072;-90
2022/08/08 05:13:42;;;;;;;2.30;1.20;;;12.60;99.90;;;;;;5053585;28;20104;-89
2022/08/08 05:16:08;;;;;;;3.10;1.58;;;12.50;99.90;;;;;;5070456;28;20048;-90
2022/08/08 05:18:38;;;;;;;5.75;1.70;;;12.50;99.90;;;;;;5070248;28;20040;-90
2022/08/08 05:21:05;;;;;;;5.47;2.55;;;12.60;99.90;;;;;;5069798;28;20087;-90
2022/08/08 05:23:31;;;;;;;4.68;2.20;;;12.70;99.90;;;;;;5053487;28;20040;-90
2022/08/08 05:25:58;;;;;;;6.55;3.38;;;12.70;99.90;;;;;;5052921;28;20068;-90
2022/08/08 05:28:24;;;;;;;7.97;4.10;;;12.70;99.90;;;;;;5053741;28;20052;-90
2022/08/08 05:30:50;;;;;;;6.85;3.47;;;12.80;99.90;;;;;;5052974;28;20044;-90
2022/08/08 05:33:16;;;;;;;7.80;4.97;;;12.90;99.90;;;;;;5069920;28;20037;-90
2022/08/08 05:35:43;;;;;;;9.88;6.60;;;13.00;99.90;;;;;;5053444;28;20437;-90
2022/08/08 05:38:13;;;;;;;8.80;4.60;;;13.10;99.90;;;;;;5070138;28;20581;-89
2022/08/08 05:40:45;;;;;;;7.45;3.40;;;13.10;99.90;;;;;;5069638;28;20045;-89
2022/08/08 05:43:28;;;;;;;8.27;3.90;;;13.10;99.90;;;;;;5052454;28;20043;-90
2022/08/08 05:46:02;;;;;;;7.57;3.60;;;13.10;99.90;;;;;;5070198;28;20186;-90
2022/08/08 05:48:27;;;;;;;9.63;6.53;;;13.20;99.90;;;;;;5069538;28;20040;-90
2022/08/08 05:50:53;;;;;;;11.10;6.50;;;13.20;99.90;;;;;;5053030;28;20044;-90
2022/08/08 05:53:26;;;;;;;9.93;5.05;;;13.40;99.90;;;;;;5069781;28;20485;-90
2022/08/08 05:55:57;;;;;;;10.27;6.28;;;13.40;99.90;;;;;;5069351;28;20055;-90
2022/08/08 05:58:29;;;;;;;7.93;4.03;;;13.50;99.90;;;;;;5044200;28;20036;-89
2022/08/08 06:01:02;;;;;;;9.57;5.00;;;13.50;99.90;;;;;;5041255;28;20528;-89
2022/08/08 06:03:30;;;;;;;11.90;7.03;;;13.50;99.90;;;;;;5046943;28;20468;-90
2022/08/08 06:05:57;;;;;;;9.80;6.70;;;13.60;99.90;;;;;;5069836;28;20036;-90
2022/08/08 06:08:26;;;;;;;10.15;5.05;;;13.80;99.90;;;;;;5069630;28;20040;-90
2022/08/08 06:10:57;;;;;;;9.32;6.32;;;13.80;99.90;;;;;;5069132;28;20040;-90
2022/08/08 06:13:23;;;;;;;10.95;6.60;;;13.90;99.90;;;;;;5069518;28;20042;-90
2022/08/08 06:15:53;;;;;;;10.43;4.95;;;14.00;99.90;;;;;;5069568;28;20037;-90
2022/08/08 06:18:20;;;;;;;11.73;5.95;;;14.10;99.90;;;;;;5052877;28;20040;-89
2022/08/08 06:20:46;;;;;;;10.45;6.22;;;14.20;99.90;;;;;;5052433;28;20040;-89
2022/08/08 06:23:12;;;;;;;12.57;7.20;;;14.30;99.90;;;;;;5069546;28;20045;-89
2022/08/08 06:25:41;;;;;;;12.63;5.68;;;14.50;99.90;;;;;;5069281;28;20043;-90
2022/08/08 06:28:22;;;;;;;12.00;6.90;;;14.50;99.90;;;;;;5052865;28;20047;-90
2022/08/08 06:30:51;;;;;;;11.05;6.70;;;14.60;99.90;;;;;;5052444;28;20029;-89
2022/08/08 06:33:26;;;;;;;11.63;5.75;;;14.70;99.90;;;;;;5052389;28;20040;-89
2022/08/08 06:35:54;;;;;;;11.30;7.22;;;14.80;99.90;;;;;;5052667;28;20040;-90
2022/08/08 06:38:26;;;;;;;11.82;7.43;;;14.90;99.90;;;;;;5054547;28;20095;-89
2022/08/08 06:40:55;;;;;;;10.35;5.30;;;15.00;99.90;;;;;;5072973;28;20110;-90
2022/08/08 06:43:21;;;;;;;9.93;7.57;;;15.00;99.90;;;;;;5073169;28;20036;-90
2022/08/08 06:45:48;;;;;;;12.30;8.45;;;15.20;99.90;;;;;;5073078;28;20032;-90
2022/08/08 06:48:14;;;;;;;12.82;8.43;;;15.30;99.90;;;;;;5072956;28;20115;-90
2022/08/08 06:50:40;;;;;;;12.20;7.68;;;15.50;99.90;;;;;;5056634;28;20114;-90
2022/08/08 06:53:09;;;;;;;13.18;7.75;;;15.60;99.90;;;;;;5072709;28;20047;-90
2022/08/08 06:55:35;;;;;;;12.25;7.55;;;15.70;99.90;;;;;;5042079;28;20572;-90
2022/08/08 06:58:01;;;;;;;12.65;7.20;;;15.80;99.90;;;;;;5036460;28;20037;-89
2022/08/08 07:00:33;;;;;;;14.73;7.30;;;15.90;99.90;;;;;;5036113;28;20413;-90
2022/08/08 07:03:01;;;;;;;11.90;4.55;;;16.00;99.90;;;;;;5035659;28;20263;-90
2022/08/08 07:05:31;;;;;;;14.25;5.45;;;16.10;99.90;;;;;;5053941;28;20067;-90
2022/08/08 07:08:23;;;;;;;11.27;5.35;;;16.20;99.90;;;;;;5053137;28;20114;-91
2022/08/08 07:10:50;;;;;;;13.15;5.20;;;16.40;99.90;;;;;;5052169;28;20558;-90
2022/08/08 07:13:18;;;;;;;11.75;5.57;;;16.50;99.90;;;;;;5042720;28;20132;-90
2022/08/08 07:15:57;;;;;;;10.10;5.03;;;16.60;99.90;;;;;;5072522;28;20040;-90
2022/08/08 07:18:38;;;;;;;11.63;4.90;;;16.70;99.90;;;;;;5072350;28;20502;-90
2022/08/08 07:21:06;;;;;;;10.85;5.00;;;16.80;99.90;;;;;;5055213;28;20139;-89
2022/08/08 07:23:45;;;;;;;10.85;4.25;;;16.90;99.90;;;;;;5072359;28;20047;-90
2022/08/08 07:26:14;;;;;;;10.70;4.35;;;17.10;99.90;;;;;;5055913;28;20048;-90
2022/08/08 07:28:41;;;;;;;9.93;4.35;;;17.10;99.90;;;;;;5072108;28;20036;-90
2022/08/08 07:31:07;;;;;;;10.55;3.95;;;17.20;99.90;;;;;;5072135;28;20045;-88
2022/08/08 07:33:35;;;;;;;12.40;3.90;;;17.40;99.90;;;;;;5055112;28;20033;-88
2022/08/08 07:36:01;;;;;;;12.15;3.80;;;17.50;99.90;;;;;;5055606;28;20489;-90
2022/08/08 07:38:27;;;;;;;11.18;3.80;;;17.60;99.90;;;;;;5055485;28;20098;-90
2022/08/08 07:40:58;;;;;;;10.77;4.00;;;17.70;99.90;;;;;;5071882;28;20063;-90
2022/08/08 07:43:24;;;;;;;9.15;3.55;;;17.80;99.90;;;;;;5072078;28;20123;-91
2022/08/08 07:45:50;;;;;;;9.70;3.85;;;17.90;99.90;;;;;;5055583;28;20123;-90
2022/08/08 07:48:15;;;;;;;11.05;3.65;;;18.00;99.90;;;;;;5067912;28;20029;-91
2022/08/08 07:50:43;;;;;;;10.18;3.50;;;18.10;99.90;;;;;;5067932;28;20032;-90
2022/08/08 07:53:30;;;;;;;11.48;4.20;;;18.20;99.90;;;;;;5051945;28;20044;-90
2022/08/08 07:55:59;;;;;;;9.23;3.97;;;18.30;99.90;;;;;;5059243;28;20095;-90
2022/08/08 07:58:31;;;;;;;9.93;3.88;;;18.30;99.90;;;;;;5062235;28;20036;-89
2022/08/08 08:01:16;;;;;;;11.43;3.90;;;18.40;99.90;;;;;;5053688;28;20422;-90
2022/08/08 08:03:54;;;;;;;10.57;4.20;;;18.50;99.90;;;;;;5035187;28;20071;-91
2022/08/08 08:06:20;;;;;;;12.52;3.60;;;18.60;99.90;;;;;;5051769;28;20072;-90
2022/08/08 08:09:17;;;;;;;11.93;3.53;;;18.70;99.90;;;;;;5051154;28;20080;-90
2022/08/08 08:11:48;;;;;;;9.38;2.90;;;18.70;99.90;;;;;;5045407;28;20126;-90
2022/08/08 08:14:18;;;;;;;8.38;2.70;;;18.80;99.90;;;;;;5034834;28;20064;-90
2022/08/08 08:16:46;;;;;;;8.65;2.80;;;18.80;99.90;;;;;;5034547;28;20068;-91
2022/08/08 08:19:13;;;;;;;9.85;3.08;;;18.90;99.90;;;;;;5034901;28;20073;-90
2022/08/08 08:21:47;;;;;;;8.25;2.78;;;18.90;99.90;;;;;;5050978;28;20474;-90
2022/08/08 08:24:13;;;;;;;9.38;3.28;;;19.00;99.90;;;;;;5051308;28;20071;-91
2022/08/08 08:26:40;;;;;;;11.43;3.90;;;19.00;99.90;;;;;;5066227;28;20045;-91
2022/08/08 08:29:06;;;;;;;8.18;2.92;;;19.10;99.90;;;;;;5071516;28;20052;-91
2022/08/08 08:31:32;;;;;;;7.65;2.70;;;19.20;99.90;;;;;;5070014;28;20072;-91
2022/08/08 08:33:57;;;;;;;8.68;2.40;;;19.30;99.90;;;;;;5071135;28;20505;-91
2022/08/08 08:36:23;;;;;;;11.98;4.35;;;19.30;99.90;;;;;;5068906;28;20066;-91
2022/08/08 08:38:50;;;;;;;9.45;4.35;;;19.40;99.90;;;;;;5071731;28;20443;-91
2022/08/08 08:41:17;;;;;;;9.10;2.40;;;19.60;99.90;;;;;;5070835;28;20036;-91
2022/08/08 08:43:45;;;;;;;9.35;2.70;;;19.60;99.90;;;;;;5070881;28;20067;-91
2022/08/08 08:46:11;;;;;;;9.02;2.42;;;19.70;99.90;;;;;;5054015;28;20059;-91
2022/08/08 08:48:39;;;;;;;9.75;2.40;;;19.70;99.90;;;;;;5070346;28;20066;-91
2022/08/08 08:51:10;;;;;;;8.65;2.35;;;19.80;99.90;;;;;;5070480;28;20048;-91
2022/08/08 08:53:48;;;;;;;8.50;2.50;;;19.90;99.90;;;;;;5070286;28;20878;-91
2022/08/08 08:56:15;;;;;;;7.55;2.10;;;19.90;99.90;;;;;;5054379;28;20401;-91
2022/08/08 08:58:44;;;;;;;7.93;2.05;;;20.00;99.90;;;;;;5054043;28;20146;-91
2022/08/08 09:01:11;;;;;;;8.20;2.13;;;20.10;99.90;;;;;;5069163;28;20480;-91
2022/08/08 09:03:46;;;;;;;9.77;2.05;;;20.10;99.90;;;;;;5070461;28;20642;-91
2022/08/08 09:06:26;;;;;;;8.48;2.38;;;20.20;99.90;;;;;;5070514;28;20051;-92
2022/08/08 09:09:03;;;;;;;6.97;2.00;;;20.20;99.90;;;;;;5070469;28;20044;-91
2022/08/08 09:11:33;;;;;;;7.50;2.00;;;20.30;99.90;;;;;;5069173;28;20089;-92
2022/08/08 09:14:03;;;;;;;9.05;2.20;;;20.30;99.90;;;;;;5061613;28;20041;-92
2022/08/08 09:16:30;;;;;;;7.93;1.98;;;20.30;99.90;;;;;;5067214;28;20033;-91
2022/08/08 09:18:56;;;;;;;10.75;2.70;;;20.30;99.90;;;;;;5070165;28;20029;-91
2022/08/08 09:21:23;;;;;;;7.60;2.35;;;20.40;99.90;;;;;;5053298;28;20520;-92
2022/08/08 09:23:49;;;;;;;8.02;2.83;;;20.50;99.90;;;;;;5069767;28;20131;-92
2022/08/08 09:26:49;;;;;;;7.60;1.90;;;20.60;99.90;;;;;;5070225;28;20528;-92
2022/08/08 09:29:24;;;;;;;6.80;1.90;;;20.70;99.90;;;;;;5062687;28;20063;-91
2022/08/08 09:32:05;;;;;;;5.32;1.83;;;20.80;99.90;;;;;;5069428;28;20401;-92
2022/08/08 09:34:37;;;;;;;7.50;1.95;;;20.90;99.90;;;;;;5069675;28;20071;-91
2022/08/08 09:37:08;;;;;;;4.45;1.60;;;20.90;99.90;;;;;;5070014;28;20072;-92
2022/08/08 09:40:00;;;;;;;7.30;1.70;;;21.00;99.90;;;;;;5070104;28;20119;-92
2022/08/08 09:42:32;;;;;;;16.88;1.90;;;21.00;99.90;;;;;;5063657;28;20051;-91
2022/08/08 09:45:31;;;;;;;8.82;2.00;;;21.00;99.90;;;;;;5069533;28;20654;-91
2022/08/08 09:48:02;;;;;;;8.13;1.90;;;20.90;99.90;;;;;;5047493;28;20051;-91
2022/08/08 09:50:29;;;;;;;7.25;2.25;;;20.90;99.90;;;;;;5053578;28;20037;-91
2022/08/08 09:52:56;;;;;;;8.27;2.10;;;20.90;99.90;;;;;;5069005;28;20049;-91
2022/08/08 09:55:23;;;;;;;7.57;1.95;;;21.00;99.90;;;;;;5069419;28;20437;-92
2022/08/08 09:57:50;;;;;;;7.00;1.88;;;21.00;99.90;;;;;;5053125;28;20059;-91
2022/08/08 10:00:21;;;;;;;7.90;2.08;;;21.10;99.90;;;;;;5069603;28;20036;-92
2022/08/08 10:02:50;;;;;;;10.18;3.30;;;21.10;99.90;;;;;;5052746;28;20044;-91
2022/08/08 10:05:18;;;;;;;8.75;2.13;;;21.20;99.90;;;;;;5069642;28;20494;-91
2022/08/08 10:07:50;;;;;;;6.53;1.60;;;21.40;99.90;;;;;;5052587;28;20086;-92
2022/08/08 10:10:36;;;;;;;6.32;1.70;;;21.40;99.90;;;;;;5052960;28;20048;-91
2022/08/08 10:13:21;;;;;;;9.25;2.00;;;21.50;99.90;;;;;;5055103;28;20407;-92
2022/08/08 10:15:49;;;;;;;6.63;1.60;;;21.60;99.90;;;;;;5073642;28;20462;-92
2022/08/08 10:18:25;;;;;;;6.40;1.60;;;21.60;99.90;;;;;;5073576;28;20040;-91
2022/08/08 10:20:55;;;;;;;7.50;2.00;;;21.70;99.90;;;;;;5073891;28;20040;-92
2022/08/08 10:23:33;;;;;;;7.43;1.75;;;21.80;99.90;;;;;;5067308;28;20472;-91
2022/08/08 10:26:01;;;;;;;8.02;2.28;;;21.90;99.90;;;;;;5063321;28;20424;-92
2022/08/08 10:28:30;;;;;;;6.30;1.67;;;21.90;99.90;;;;;;5062128;28;20509;-91
2022/08/08 10:32:30;;;;;;;6.40;1.75;;;22.00;99.90;;;;;;5057879;28;20041;-91
2022/08/08 10:33:50;;;;;;;7.75;1.67;;;22.00;99.90;;;;;;5074369;28;20087;-91
2022/08/08 10:36:22;;;;;;;6.45;1.60;;;21.90;99.90;;;;;;5056744;28;20040;-91
2022/08/08 10:38:48;;;;;;;5.40;1.70;;;22.00;99.90;;;;;;5056541;28;20123;-91
2022/08/08 10:41:16;;;;;;;8.80;1.83;;;21.90;99.90;;;;;;5072838;28;20075;-92
2022/08/08 10:43:42;;;;;;;7.32;1.65;;;21.90;99.90;;;;;;5056425;28;20072;-91
2022/08/08 10:46:24;;;;;;;7.18;1.73;;;21.90;99.90;;;;;;5074543;28;20045;-91
2022/08/08 10:48:54;;;;;;;6.35;1.70;;;22.00;99.90;;;;;;5074412;28;20105;-91
2022/08/08 10:51:35;;;;;;;5.28;1.50;;;22.00;99.90;;;;;;5072524;28;20040;-91
2022/08/08 10:54:01;;;;;;;4.88;1.50;;;22.00;99.90;;;;;;5056345;28;20059;-92
2022/08/08 10:56:33;;;;;;;5.05;1.40;;;22.00;99.90;;;;;;5072975;28;20033;-92
2022/08/08 10:58:59;;;;;;;5.40;1.30;;;22.10;99.90;;;;;;5073050;28;20053;-92
2022/08/08 11:01:30;;;;;;;5.43;1.30;;;22.30;99.90;;;;;;5072666;28;20040;-91
2022/08/08 11:03:59;;;;;;;4.25;1.00;;;22.50;99.90;;;;;;5072956;28;20032;-92
2022/08/08 11:06:37;;;;;;;5.50;1.40;;;22.70;98.80;;;;;;5056251;28;20044;-91
2022/08/08 11:09:08;;;;;;;3.85;1.10;;;22.90;99.30;;;;;;5072832;28;20048;-91
2022/08/08 11:11:42;;;;;;;5.28;1.30;;;23.00;99.10;;;;;;5055838;28;20501;-91
2022/08/08 11:14:11;;;;;;;6.45;2.00;;;23.20;98.90;;;;;;5055400;28;20087;-91
2022/08/08 11:16:42;;;;;;;6.47;1.98;;;23.40;96.40;;;;;;5072395;28;20040;-92
2022/08/08 11:19:08;;;;;;;5.95;1.30;;;23.60;94.20;;;;;;5072834;28;20048;-91
2022/08/08 11:21:40;;;;;;;6.22;1.50;;;23.70;92.30;;;;;;5071869;28;20033;-91
2022/08/08 11:24:08;;;;;;;8.45;2.38;;;23.90;91.60;;;;;;5071981;28;20435;-92
2022/08/08 11:26:37;;;;;;;5.25;1.27;;;24.00;91.00;;;;;;5055735;28;20048;-92
2022/08/08 11:29:04;;;;;;;3.47;1.02;;;24.10;90.00;;;;;;5072007;28;20567;-92
2022/08/08 11:31:37;;;;;;;6.47;2.05;;;24.20;89.40;;;;;;5072005;28;20041;-91
2022/08/08 11:34:04;;;;;;;5.63;1.60;;;24.20;87.80;;;;;;5073813;28;20434;-91
2022/08/08 11:36:35;;;;;;;6.53;2.00;;;24.40;85.00;;;;;;5055353;28;20123;-92
2022/08/08 11:39:02;;;;;;;6.70;1.52;;;24.50;86.30;;;;;;5072265;28;20081;-91
2022/08/08 11:41:28;;;;;;;5.22;1.13;;;24.50;85.20;;;;;;5072790;28;20462;-91
2022/08/08 11:43:54;;;;;;;5.88;1.40;;;24.50;84.80;;;;;;5070764;28;20079;-91
2022/08/08 11:46:23;;;;;;;4.68;1.20;;;24.60;89.90;;;;;;5035719;28;20079;-91
2022/08/08 11:48:49;;;;;;;5.00;1.23;;;24.80;90.00;;;;;;5035179;28;20041;-91
2022/08/08 11:51:21;;;;;;;5.85;1.13;;;24.90;86.00;;;;;;5051389;28;20045;-91
2022/08/08 11:53:48;;;;;;;4.97;1.50;;;24.90;80.30;;;;;;5034974;28;20045;-91
2022/08/08 11:56:22;;;;;;;5.32;1.10;;;24.80;78.80;;;;;;5051440;28;20125;-91
2022/08/08 11:58:48;;;;;;;7.57;2.65;;;24.90;81.80;;;;;;5034801;28;20033;-91
2022/08/08 12:01:14;;;;;;;6.82;1.70;;;25.00;82.70;;;;;;5051539;28;20454;-90
2022/08/08 12:03:48;;;;;;;7.63;2.40;;;25.20;81.10;;;;;;5052150;28;20128;-91
2022/08/08 12:06:16;;;;;;;4.95;1.33;;;25.50;83.90;;;;;;5052070;28;20372;-91
2022/08/08 12:08:42;;;;;;;4.10;1.05;;;25.70;81.60;;;;;;5050077;28;20036;-91
2022/08/08 12:11:19;;;;;;;4.20;1.13;;;26.00;80.30;;;;;;5050651;28;20039;-93
2022/08/08 12:13:49;;;;;;;4.95;1.08;;;26.20;77.20;;;;;;5050494;28;20071;-92
2022/08/08 12:16:17;;;;;;;5.75;1.10;;;26.40;72.80;;;;;;5050483;28;20859;-92
2022/08/08 12:18:54;;;;;;;5.70;1.25;;;26.60;70.50;;;;;;5050263;28;20123;-92
2022/08/08 12:21:25;;;;;;;4.80;1.10;;;26.70;69.30;;;;;;5033212;28;20072;-91
2022/08/08 12:24:08;;;;;;;3.77;1.20;;;26.80;69.00;;;;;;5050365;28;20533;-92
2022/08/08 12:26:43;;;;;;;4.85;1.10;;;26.80;66.60;;;;;;5050523;28;20279;-92
2022/08/08 12:29:47;;;;;;;17.20;6.25;;;26.80;65.50;;;;;;5050714;28;20045;-91
2022/08/08 12:32:14;;;;;;;7.55;2.08;;;26.70;67.10;;;;;;5050056;28;20047;-91
2022/08/08 12:34:45;;;;;;;7.00;1.60;;;26.50;67.20;;;;;;5051842;28;20525;-91
2022/08/08 12:37:19;;;;;;;11.93;2.22;;;26.40;67.20;;;;;;5051154;28;20033;-91
2022/08/08 12:39:45;;;;;;;11.98;3.88;;;26.30;66.90;;;;;;5034428;28;20133;-92
2022/08/08 12:42:11;;;;;;;5.97;1.63;;;26.20;67.00;;;;;;5035701;28;20499;-92
2022/08/08 12:44:39;;;;;;;6.10;1.33;;;26.10;67.20;;;;;;5070964;28;20490;-91
2022/08/08 12:47:05;;;;;;;2.85;0.90;;;26.10;68.00;;;;;;5054432;28;20040;-91
2022/08/08 12:49:33;;;;;;;3.30;1.13;;;26.00;68.60;;;;;;5054427;28;20489;-91
2022/08/08 12:52:00;;;;;;;4.25;1.00;;;26.10;68.70;;;;;;5062514;28;20044;-90
2022/08/08 12:54:37;;;;;;;4.13;1.17;;;26.00;68.70;;;;;;5059831;28;20048;-91
2022/08/08 12:57:19;;;;;;;4.72;1.10;;;26.10;69.10;;;;;;5055959;28;20087;-91
2022/08/08 12:59:52;;;;;;;3.78;1.10;;;26.10;68.80;;;;;;5047384;28;20055;-91
2022/08/08 13:02:30;;;;;;;4.65;1.08;;;26.10;67.70;;;;;;5050312;28;20087;-91
2022/08/08 13:04:58;;;;;;;4.10;1.20;;;26.10;67.80;;;;;;5033739;28;20040;-91
2022/08/08 13:07:41;;;;;;;5.30;1.17;;;26.10;67.40;;;;;;5050603;28;20055;-91
2022/08/08 13:10:09;;;;;;;3.83;1.00;;;26.20;67.20;;;;;;5051652;28;20072;-91
2022/08/08 13:12:38;;;;;;;3.60;1.20;;;26.20;66.80;;;;;;5049754;28;20465;-91
2022/08/08 13:15:07;;;;;;;5.13;1.20;;;26.20;66.00;;;;;;5033573;28;20033;-91
2022/08/08 13:17:34;;;;;;;4.45;1.02;;;26.20;65.80;;;;;;5033651;28;20055;-91
2022/08/08 13:20:00;;;;;;;4.18;1.08;;;26.20;65.50;;;;;;5050003;28;20037;-92
2022/08/08 13:22:26;;;;;;;4.50;1.08;;;26.20;64.60;;;;;;5033368;28;20040;-92
2022/08/08 13:24:52;;;;;;;5.35;0.90;;;26.20;64.30;;;;;;5033803;28;20164;-91